Cathlamet, Washington
Current Conditions -  °F | °C
As of 2:55 PM on Tuesday 21 Oct 2014 (Local Time) from KKLS Reporting Station
Overcast Overcast  
Wind Chill: 61°   Ceiling: 6000
Heat Index: 61°   Visibility: 10mi
Dew Point: 50°   Wind: 13mph
Humidity: 68%   Direction: 160°SSE
Pressure: 29.98"   Gusts: 18mph
Location:  46.2°N, 123.38°W
Report Text: KKLS 212155Z AUTO 16011G16KT 10SM FEW046 BKN060 OVC075 16/10 A2998 RMK AO1
Loading
Personal Weather Stations






























Interactive Weather Map
Tropical Storm Tracking
New forecast layout! Learn more

10-Day Weather Forecast

Advertisements
Track Severe Weather on mobile